createdAt,value
2022-10-06T00:00:07.048Z,53.85
2022-10-06T00:00:17.033Z,53.85
2022-10-06T00:00:27.031Z,53.85
2022-10-06T00:00:37.032Z,53.74
2022-10-06T00:00:47.031Z,53.74
2022-10-06T00:00:57.030Z,53.74
2022-10-06T00:01:07.099Z,53.74
2022-10-06T00:01:17.051Z,53.74
2022-10-06T00:01:27.095Z,53.74
2022-10-06T00:01:37.100Z,53.85
2022-10-06T00:01:47.088Z,53.85
2022-10-06T00:01:57.026Z,53.74
2022-10-06T00:02:07.233Z,53.74
2022-10-06T00:02:17.062Z,53.85
2022-10-06T00:02:27.102Z,53.85
2022-10-06T00:02:37.060Z,53.74
2022-10-06T00:02:47.101Z,53.85
2022-10-06T00:02:57.115Z,53.85
2022-10-06T00:03:07.011Z,53.85
2022-10-06T00:03:17.018Z,53.85
2022-10-06T00:03:27.007Z,53.85
2022-10-06T00:03:37.015Z,53.85
2022-10-06T00:03:47.007Z,53.85
2022-10-06T00:03:57.007Z,53.85
2022-10-06T00:04:07.005Z,53.85
2022-10-06T00:04:17.008Z,53.85
2022-10-06T00:04:27.002Z,53.85
2022-10-06T00:04:37.009Z,53.85
2022-10-06T00:04:47.005Z,53.85
2022-10-06T00:04:57.003Z,53.94
2022-10-06T00:05:07.016Z,53.94
2022-10-06T00:05:16.999Z,53.85
2022-10-06T00:05:26.996Z,53.85
2022-10-06T00:05:36.997Z,53.85
2022-10-06T00:05:46.992Z,53.85
2022-10-06T00:05:56.996Z,53.85
2022-10-06T00:06:06.988Z,53.85
2022-10-06T00:06:16.995Z,53.85
2022-10-06T00:06:36.990Z,53.85
2022-10-06T00:06:46.986Z,53.85
2022-10-06T00:06:56.989Z,53.85
2022-10-06T00:07:06.983Z,53.85
2022-10-06T00:07:16.988Z,53.85
2022-10-06T00:07:26.984Z,53.74
2022-10-06T00:07:36.982Z,53.74
2022-10-06T00:07:46.977Z,53.74
2022-10-06T00:07:56.982Z,53.74
2022-10-06T00:08:09.939Z,53.74
2022-10-06T00:08:16.981Z,53.74
2022-10-06T00:08:27.414Z,53.74
2022-10-06T00:08:36.975Z,53.74
2022-10-06T00:08:46.979Z,53.74
2022-10-06T00:08:56.973Z,53.74
2022-10-06T00:09:06.970Z,53.74
2022-10-06T00:09:16.969Z,53.64
2022-10-06T00:09:26.965Z,53.74
2022-10-06T00:09:36.967Z,53.74
2022-10-06T00:09:46.963Z,53.74
2022-10-06T00:09:56.973Z,53.85
2022-10-06T00:10:06.961Z,53.74
2022-10-06T00:10:16.965Z,53.74
2022-10-06T00:10:26.958Z,53.74
2022-10-06T00:10:36.962Z,53.74
2022-10-06T00:10:46.957Z,53.74
2022-10-06T00:10:56.980Z,53.74
2022-10-06T00:11:06.955Z,53.74
2022-10-06T00:11:16.956Z,53.64
2022-10-06T00:11:26.975Z,53.64
2022-10-06T00:11:36.954Z,53.74
2022-10-06T00:11:46.953Z,53.64
2022-10-06T00:11:56.951Z,53.64
2022-10-06T00:12:06.950Z,53.74
2022-10-06T00:12:16.948Z,53.74
2022-10-06T00:12:26.945Z,53.74
2022-10-06T00:12:36.950Z,53.74
2022-10-06T00:12:46.943Z,53.74
2022-10-06T00:12:56.947Z,53.64
2022-10-06T00:13:06.938Z,53.64
2022-10-06T00:13:16.940Z,53.64
2022-10-06T00:13:26.939Z,53.64
2022-10-06T00:13:36.937Z,53.74
2022-10-06T00:13:46.938Z,53.74
2022-10-06T00:14:06.931Z,53.74
2022-10-06T00:14:16.934Z,53.74
2022-10-06T00:14:26.964Z,53.74
2022-10-06T00:14:36.937Z,53.74
2022-10-06T00:14:46.931Z,53.74
2022-10-06T00:14:56.931Z,53.74
2022-10-06T00:15:06.926Z,53.85
2022-10-06T00:15:16.943Z,53.85
2022-10-06T00:15:27.049Z,53.85
2022-10-06T00:15:37.002Z,53.85
2022-10-06T00:15:47.032Z,53.74
2022-10-06T00:15:56.964Z,53.74
2022-10-06T00:16:06.949Z,53.74
2022-10-06T00:16:16.938Z,53.74
2022-10-06T00:16:36.917Z,53.74
2022-10-06T00:16:46.913Z,53.74
2022-10-06T00:16:56.915Z,53.74
2022-10-06T00:17:06.911Z,53.64
2022-10-06T00:17:16.917Z,53.64
2022-10-06T00:17:26.910Z,53.64
2022-10-06T00:17:51.535Z,53.64
2022-10-06T00:17:56.202Z,53.64
2022-10-06T00:18:06.197Z,53.64
2022-10-06T00:18:16.198Z,53.64
2022-10-06T00:18:26.704Z,53.64
2022-10-06T00:18:36.210Z,53.64
2022-10-06T00:18:46.191Z,53.64
2022-10-06T00:18:56.192Z,53.64
2022-10-06T00:19:06.194Z,53.64
2022-10-06T00:19:16.193Z,53.64
2022-10-06T00:19:26.187Z,53.64
2022-10-06T00:19:36.189Z,53.64
2022-10-06T00:19:46.190Z,53.64
2022-10-06T00:19:56.188Z,53.74
2022-10-06T00:20:06.185Z,53.74
2022-10-06T00:20:16.191Z,53.74
2022-10-06T00:20:26.181Z,53.74
2022-10-06T00:20:36.184Z,53.74
2022-10-06T00:20:46.180Z,53.74
2022-10-06T00:20:56.182Z,53.64
2022-10-06T00:21:06.214Z,53.64
2022-10-06T00:21:16.177Z,53.55
2022-10-06T00:21:26.183Z,53.64
2022-10-06T00:21:36.176Z,53.64
2022-10-06T00:21:46.173Z,53.55
2022-10-06T00:21:56.173Z,53.55
2022-10-06T00:22:06.171Z,53.55
2022-10-06T00:22:16.173Z,53.55
2022-10-06T00:22:26.169Z,53.55
2022-10-06T00:22:36.169Z,53.55
2022-10-06T00:22:46.164Z,53.55
2022-10-06T00:22:56.166Z,53.55
2022-10-06T00:23:06.161Z,53.55
2022-10-06T00:23:16.162Z,53.55
2022-10-06T00:23:26.159Z,53.55
2022-10-06T00:23:36.177Z,53.55
2022-10-06T00:23:46.156Z,53.55
2022-10-06T00:23:56.158Z,53.55
2022-10-06T00:24:06.178Z,53.55
2022-10-06T00:24:16.156Z,53.55
2022-10-06T00:24:26.153Z,53.55
2022-10-06T00:24:36.155Z,53.55
2022-10-06T00:24:46.161Z,53.55
2022-10-06T00:24:56.151Z,53.55
2022-10-06T00:25:06.148Z,53.44
2022-10-06T00:25:16.148Z,53.44
2022-10-06T00:25:26.164Z,53.44
2022-10-06T00:25:36.147Z,53.44
2022-10-06T00:25:46.144Z,53.55
2022-10-06T00:25:56.147Z,53.44
2022-10-06T00:26:06.148Z,53.44
2022-10-06T00:26:16.142Z,53.44
2022-10-06T00:26:26.140Z,53.44
2022-10-06T00:26:36.143Z,53.44
2022-10-06T00:26:46.136Z,53.44
2022-10-06T00:26:56.140Z,53.44
2022-10-06T00:27:06.135Z,53.44
2022-10-06T00:27:16.140Z,53.44
2022-10-06T00:27:26.144Z,53.44
2022-10-06T00:27:36.134Z,53.44
2022-10-06T00:27:46.220Z,53.44
2022-10-06T00:27:56.214Z,53.44
2022-10-06T00:28:06.172Z,53.44
2022-10-06T00:28:16.201Z,53.44
2022-10-06T00:28:26.502Z,53.44
2022-10-06T00:28:36.256Z,53.44
2022-10-06T00:28:56.124Z,53.44
2022-10-06T00:29:06.117Z,53.44
2022-10-06T00:29:16.126Z,53.55
2022-10-06T00:29:26.118Z,53.55
2022-10-06T00:29:36.121Z,53.44
2022-10-06T00:29:46.135Z,53.44
2022-10-06T00:29:56.112Z,53.44
2022-10-06T00:30:06.118Z,53.55
2022-10-06T00:30:16.111Z,53.55
2022-10-06T00:30:26.121Z,53.55
2022-10-06T00:30:36.109Z,53.55
2022-10-06T00:30:46.184Z,53.55
2022-10-06T00:30:56.192Z,53.55
2022-10-06T00:31:06.146Z,53.55
2022-10-06T00:31:16.168Z,53.55
2022-10-06T00:31:26.153Z,53.55
2022-10-06T00:31:36.207Z,53.55
2022-10-06T00:31:46.105Z,53.55
2022-10-06T00:31:56.099Z,53.55
2022-10-06T00:32:06.101Z,53.55
2022-10-06T00:32:16.099Z,53.55
2022-10-06T00:32:26.099Z,53.55
2022-10-06T00:32:36.095Z,53.55
2022-10-06T00:32:46.094Z,53.64
2022-10-06T00:32:56.104Z,53.55
2022-10-06T00:33:06.097Z,53.55
2022-10-06T00:33:16.094Z,53.55
2022-10-06T00:33:26.097Z,53.55
2022-10-06T00:33:36.087Z,53.55
2022-10-06T00:33:56.099Z,53.55
2022-10-06T00:34:06.087Z,53.64
2022-10-06T00:34:16.085Z,53.64
2022-10-06T00:34:26.084Z,53.64
2022-10-06T00:34:36.084Z,53.64
2022-10-06T00:34:46.081Z,53.64
2022-10-06T00:34:56.079Z,53.64
2022-10-06T00:35:06.078Z,53.64
2022-10-06T00:35:16.075Z,53.64
2022-10-06T00:35:26.080Z,53.64
2022-10-06T00:35:36.073Z,53.64
2022-10-06T00:35:46.077Z,53.74
2022-10-06T00:35:56.072Z,53.67
2022-10-06T00:36:06.075Z,53.64
2022-10-06T00:36:16.069Z,53.64
2022-10-06T00:36:26.071Z,53.64
2022-10-06T00:36:36.075Z,53.55
2022-10-06T00:36:46.068Z,53.64
2022-10-06T00:36:56.066Z,53.55
2022-10-06T00:37:06.067Z,53.55
2022-10-06T00:37:16.064Z,53.55
2022-10-06T00:37:26.086Z,53.64
2022-10-06T00:37:36.061Z,53.64
2022-10-06T00:37:46.061Z,53.74
2022-10-06T00:37:56.055Z,53.64
2022-10-06T00:38:06.057Z,53.74
2022-10-06T00:38:16.055Z,53.64
2022-10-06T00:38:26.510Z,53.64
2022-10-06T00:38:36.071Z,53.64
2022-10-06T00:38:46.057Z,53.64
2022-10-06T00:38:56.052Z,53.64
2022-10-06T00:39:06.115Z,53.67
2022-10-06T00:39:16.048Z,53.64
2022-10-06T00:39:26.053Z,53.67
2022-10-06T00:39:36.047Z,53.67
2022-10-06T00:39:46.050Z,53.67
2022-10-06T00:39:56.043Z,53.64
2022-10-06T00:40:06.045Z,53.64
2022-10-06T00:40:16.038Z,53.67
2022-10-06T00:40:26.056Z,53.67
2022-10-06T00:40:36.038Z,53.67
2022-10-06T00:40:46.041Z,53.74
2022-10-06T00:40:56.047Z,53.74
2022-10-06T00:41:06.038Z,53.67
2022-10-06T00:41:26.047Z,53.64
2022-10-06T00:41:36.037Z,53.64
2022-10-06T00:41:46.032Z,53.64
2022-10-06T00:41:56.031Z,53.67
2022-10-06T00:42:06.031Z,53.64
2022-10-06T00:42:16.030Z,53.67
2022-10-06T00:42:26.026Z,53.64
2022-10-06T00:42:36.025Z,53.64
2022-10-06T00:42:46.026Z,53.67
2022-10-06T00:42:56.022Z,53.67
2022-10-06T00:43:06.025Z,53.64
2022-10-06T00:43:16.053Z,53.67
2022-10-06T00:43:26.021Z,53.64
2022-10-06T00:43:36.044Z,53.64
2022-10-06T00:43:56.014Z,53.64
2022-10-06T00:44:06.017Z,53.64
2022-10-06T00:44:16.013Z,53.64
2022-10-06T00:44:26.016Z,53.64
2022-10-06T00:44:36.009Z,53.64
2022-10-06T00:44:46.017Z,53.55
2022-10-06T00:44:56.007Z,53.55
2022-10-06T00:45:06.011Z,53.64
2022-10-06T00:45:16.008Z,53.64
2022-10-06T00:45:26.005Z,53.67
2022-10-06T00:45:36.003Z,53.64
2022-10-06T00:45:46.003Z,53.64
2022-10-06T00:45:56.071Z,53.67
2022-10-06T00:46:06.125Z,53.64
2022-10-06T00:46:16.097Z,53.64
2022-10-06T00:46:26.051Z,53.64
2022-10-06T00:46:36.109Z,53.64
2022-10-06T00:46:46.073Z,53.64
2022-10-06T00:46:55.995Z,53.64
2022-10-06T00:47:05.995Z,53.67
2022-10-06T00:47:15.992Z,53.64
2022-10-06T00:47:25.992Z,53.64
2022-10-06T00:47:35.990Z,53.55
2022-10-06T00:47:45.990Z,53.67
2022-10-06T00:47:55.990Z,53.67
2022-10-06T00:48:05.989Z,53.64
2022-10-06T00:48:15.983Z,53.67
2022-10-06T00:48:26.553Z,53.64
2022-10-06T00:48:35.986Z,53.64
2022-10-06T00:48:45.983Z,53.64
2022-10-06T00:48:56.007Z,53.64
2022-10-06T00:49:05.981Z,53.55
2022-10-06T00:49:15.976Z,53.55
2022-10-06T00:49:25.979Z,53.57
2022-10-06T00:49:35.973Z,53.64
2022-10-06T00:49:45.976Z,53.67
2022-10-06T00:49:55.976Z,53.67
2022-10-06T00:50:05.974Z,53.67
2022-10-06T00:50:15.971Z,53.67
2022-10-06T00:50:25.976Z,53.67
2022-10-06T00:50:35.970Z,53.67
2022-10-06T00:50:45.971Z,53.67
2022-10-06T00:50:55.964Z,53.67
2022-10-06T00:51:05.970Z,53.67
2022-10-06T00:51:15.965Z,53.67
2022-10-06T00:51:25.968Z,53.67
2022-10-06T00:51:45.963Z,53.55
2022-10-06T00:51:55.959Z,53.64
2022-10-06T00:52:05.965Z,53.57
2022-10-06T00:52:15.960Z,53.55
2022-10-06T00:52:25.966Z,53.55
2022-10-06T00:52:35.953Z,53.47
2022-10-06T00:52:45.960Z,53.44
2022-10-06T00:52:55.949Z,53.47
2022-10-06T00:53:05.949Z,53.44
2022-10-06T00:53:15.948Z,53.44
2022-10-06T00:53:25.950Z,53.37
2022-10-06T00:53:35.944Z,53.47
2022-10-06T00:53:45.949Z,53.47
2022-10-06T00:53:55.944Z,53.47
2022-10-06T00:54:15.940Z,53.57
2022-10-06T00:54:25.942Z,53.47
2022-10-06T00:54:35.938Z,53.57
2022-10-06T00:54:45.941Z,53.57
2022-10-06T00:54:55.934Z,53.57
2022-10-06T00:55:05.942Z,53.57
2022-10-06T00:55:15.932Z,53.57
2022-10-06T00:55:25.937Z,53.57
2022-10-06T00:55:35.940Z,53.57
2022-10-06T00:55:45.934Z,53.57
2022-10-06T00:55:55.932Z,53.57
2022-10-06T00:56:05.934Z,53.67
2022-10-06T00:56:15.926Z,53.77
2022-10-06T00:56:25.932Z,53.77
2022-10-06T00:56:35.922Z,53.77
2022-10-06T00:56:45.930Z,53.87
2022-10-06T00:56:55.922Z,53.87
2022-10-06T00:57:05.923Z,53.87
2022-10-06T00:57:15.921Z,53.87
2022-10-06T00:57:25.937Z,53.97
2022-10-06T00:57:35.920Z,53.87
2022-10-06T00:57:45.919Z,53.87
2022-10-06T00:57:55.915Z,53.97
2022-10-06T00:58:05.916Z,53.97
2022-10-06T00:58:15.920Z,53.97
2022-10-06T00:58:26.419Z,53.97
2022-10-06T00:58:35.910Z,53.97
2022-10-06T00:58:45.913Z,53.97
2022-10-06T00:58:55.912Z,53.97
2022-10-06T00:59:05.909Z,54.10
2022-10-06T00:59:15.920Z,54.10
2022-10-06T00:59:25.906Z,54.10
2022-10-06T00:59:35.901Z,54.10
2022-10-06T00:59:45.909Z,54.10
2022-10-06T00:59:55.902Z,54.10
2022-10-06T01:00:05.904Z,54.10
2022-10-06T01:00:15.900Z,54.07
2022-10-06T01:00:25.914Z,53.97
2022-10-06T01:00:35.896Z,53.97
2022-10-06T01:00:45.918Z,53.97
2022-10-06T01:00:55.897Z,53.97
2022-10-06T01:01:05.929Z,53.87
2022-10-06T01:01:15.984Z,53.97
2022-10-06T01:01:25.983Z,53.97
2022-10-06T01:01:45.976Z,53.97
2022-10-06T01:01:55.963Z,53.87
2022-10-06T01:02:05.887Z,53.77
2022-10-06T01:02:16.008Z,53.77
2022-10-06T01:02:25.911Z,53.77
2022-10-06T01:02:36.006Z,53.77
2022-10-06T01:02:45.946Z,53.77
2022-10-06T01:02:55.906Z,53.77
2022-10-06T01:03:05.960Z,53.77
2022-10-06T01:03:15.882Z,53.77
2022-10-06T01:03:25.878Z,53.77
2022-10-06T01:03:35.884Z,53.77
2022-10-06T01:03:45.878Z,53.77
2022-10-06T01:03:55.872Z,53.77
2022-10-06T01:04:05.874Z,53.77
2022-10-06T01:04:15.872Z,53.67
2022-10-06T01:04:25.871Z,53.67
2022-10-06T01:04:35.866Z,53.67
2022-10-06T01:04:45.866Z,53.67
2022-10-06T01:04:55.866Z,53.67
2022-10-06T01:05:05.867Z,53.67
2022-10-06T01:05:15.861Z,53.67
2022-10-06T01:05:25.865Z,53.67
2022-10-06T01:05:35.861Z,53.67
2022-10-06T01:05:45.862Z,53.67
2022-10-06T01:05:55.867Z,53.67
2022-10-06T01:06:05.861Z,53.67
2022-10-06T01:06:15.858Z,53.67
2022-10-06T01:06:25.873Z,53.57
2022-10-06T01:06:35.853Z,53.57
2022-10-06T01:06:55.858Z,53.67
2022-10-06T01:07:05.871Z,53.67
2022-10-06T01:07:15.850Z,53.67
2022-10-06T01:07:25.853Z,53.67
2022-10-06T01:07:35.853Z,53.67
2022-10-06T01:07:45.851Z,53.67
2022-10-06T01:07:55.846Z,53.67
2022-10-06T01:08:05.850Z,53.57
2022-10-06T01:08:15.853Z,53.67
2022-10-06T01:08:26.320Z,53.67
2022-10-06T01:08:35.840Z,53.57
2022-10-06T01:08:45.844Z,53.67
2022-10-06T01:08:55.840Z,53.67
2022-10-06T01:09:05.844Z,53.67
2022-10-06T01:09:25.838Z,53.67
2022-10-06T01:09:35.836Z,53.57
2022-10-06T01:09:45.836Z,53.57
2022-10-06T01:09:55.829Z,53.57
2022-10-06T01:10:05.838Z,53.57
2022-10-06T01:10:15.830Z,53.67
2022-10-06T01:10:25.830Z,53.67
2022-10-06T01:10:35.829Z,53.67
2022-10-06T01:10:45.833Z,53.57
2022-10-06T01:10:55.850Z,53.57
2022-10-06T01:11:05.855Z,53.57
2022-10-06T01:11:15.818Z,53.57
2022-10-06T01:11:25.853Z,53.57
2022-10-06T01:11:35.820Z,53.57
2022-10-06T01:11:45.820Z,53.57
2022-10-06T01:11:55.819Z,53.57
2022-10-06T01:12:05.816Z,53.57
2022-10-06T01:12:15.813Z,53.57
2022-10-06T01:12:25.814Z,53.57
2022-10-06T01:12:35.814Z,53.57
2022-10-06T01:12:45.812Z,53.57
2022-10-06T01:12:55.817Z,53.57
2022-10-06T01:13:05.812Z,53.57
2022-10-06T01:13:15.827Z,53.47
2022-10-06T01:13:25.808Z,53.47
2022-10-06T01:13:35.809Z,53.57
2022-10-06T01:13:45.803Z,53.47
2022-10-06T01:13:55.807Z,53.57
2022-10-06T01:14:05.801Z,53.57
2022-10-06T01:14:25.811Z,53.57
2022-10-06T01:14:35.799Z,53.57
2022-10-06T01:14:45.797Z,53.57
2022-10-06T01:14:55.799Z,53.57
2022-10-06T01:15:05.802Z,53.57
2022-10-06T01:15:15.801Z,53.57
2022-10-06T01:15:25.795Z,53.57
2022-10-06T01:15:35.817Z,53.57
2022-10-06T01:15:45.906Z,53.67
2022-10-06T01:15:55.864Z,53.67
2022-10-06T01:16:05.838Z,53.67
2022-10-06T01:16:15.907Z,53.67
2022-10-06T01:16:25.784Z,53.67
2022-10-06T01:16:35.785Z,53.67
2022-10-06T01:16:55.783Z,53.67
2022-10-06T01:17:05.781Z,53.67
2022-10-06T01:17:15.787Z,53.67
2022-10-06T01:17:25.779Z,53.67
2022-10-06T01:17:35.779Z,53.57
2022-10-06T01:17:45.777Z,53.57
2022-10-06T01:17:55.775Z,53.57
2022-10-06T01:18:05.777Z,53.67
2022-10-06T01:18:15.807Z,53.67
2022-10-06T01:18:26.093Z,53.67
2022-10-06T01:18:35.769Z,53.67
2022-10-06T01:18:45.771Z,53.57
2022-10-06T01:18:55.773Z,53.67
2022-10-06T01:19:05.763Z,53.57
2022-10-06T01:19:15.766Z,53.57
2022-10-06T01:19:25.766Z,53.67
2022-10-06T01:19:35.767Z,53.67
2022-10-06T01:19:45.761Z,53.57
2022-10-06T01:19:55.762Z,53.57
2022-10-06T01:20:05.916Z,53.57
2022-10-06T01:20:15.757Z,53.57
2022-10-06T01:20:25.864Z,53.57
2022-10-06T01:20:35.756Z,53.47
2022-10-06T01:20:45.753Z,53.47
2022-10-06T01:20:55.760Z,53.47
2022-10-06T01:21:05.752Z,53.47
2022-10-06T01:21:15.752Z,53.47
2022-10-06T01:21:25.764Z,53.57
2022-10-06T01:21:35.774Z,53.57
2022-10-06T01:21:45.751Z,53.47
2022-10-06T01:22:05.743Z,53.47
2022-10-06T01:22:15.747Z,53.47
2022-10-06T01:22:25.742Z,53.47
2022-10-06T01:22:35.745Z,53.47
2022-10-06T01:22:45.738Z,53.34
2022-10-06T01:22:55.744Z,53.47
2022-10-06T01:23:05.743Z,53.47
2022-10-06T01:23:15.741Z,53.47
2022-10-06T01:23:25.736Z,53.47
2022-10-06T01:23:35.736Z,53.47
2022-10-06T01:23:45.735Z,53.44
2022-10-06T01:23:55.735Z,53.37
2022-10-06T01:24:05.735Z,53.37
2022-10-06T01:24:15.730Z,53.37
2022-10-06T01:24:25.748Z,53.37
2022-10-06T01:24:35.730Z,53.37
2022-10-06T01:24:45.725Z,53.34
2022-10-06T01:24:55.726Z,53.34
2022-10-06T01:25:05.727Z,53.37
2022-10-06T01:25:15.726Z,53.37
2022-10-06T01:25:25.720Z,53.37
2022-10-06T01:25:35.724Z,53.37
2022-10-06T01:25:45.717Z,53.37
2022-10-06T01:25:55.721Z,53.37
2022-10-06T01:26:05.719Z,53.37
2022-10-06T01:26:15.722Z,53.37
2022-10-06T01:26:25.715Z,53.37
2022-10-06T01:26:35.715Z,53.37
2022-10-06T01:26:45.709Z,53.37
2022-10-06T01:27:05.713Z,53.37
2022-10-06T01:27:15.709Z,53.27
2022-10-06T01:27:25.714Z,53.27
2022-10-06T01:27:35.781Z,53.27
2022-10-06T01:27:45.704Z,53.27
2022-10-06T01:27:55.779Z,53.27
2022-10-06T01:28:05.764Z,53.27
2022-10-06T01:28:15.759Z,53.27
2022-10-06T01:28:26.214Z,53.27
2022-10-06T01:28:35.787Z,53.27
2022-10-06T01:28:45.748Z,53.27
2022-10-06T01:28:55.697Z,53.27
2022-10-06T01:29:05.693Z,53.37
2022-10-06T01:29:15.695Z,53.37
2022-10-06T01:29:25.691Z,53.27
2022-10-06T01:29:35.696Z,53.27
2022-10-06T01:29:45.689Z,53.37
2022-10-06T01:29:55.701Z,53.37
2022-10-06T01:30:05.686Z,53.37
2022-10-06T01:30:15.689Z,53.37
2022-10-06T01:30:25.692Z,53.37
2022-10-06T01:30:35.688Z,53.37
2022-10-06T01:30:45.715Z,53.37
2022-10-06T01:30:55.770Z,53.37
2022-10-06T01:31:05.747Z,53.37
2022-10-06T01:31:15.796Z,53.37
2022-10-06T01:31:25.759Z,53.37
2022-10-06T01:31:35.815Z,53.37
2022-10-06T01:31:45.676Z,53.37
2022-10-06T01:32:05.672Z,53.37
2022-10-06T01:32:15.676Z,53.37
2022-10-06T01:32:25.668Z,53.37
2022-10-06T01:32:35.675Z,53.37
2022-10-06T01:32:45.700Z,53.37
2022-10-06T01:32:55.673Z,53.27
2022-10-06T01:33:05.667Z,53.27
2022-10-06T01:33:15.670Z,53.27
2022-10-06T01:33:25.668Z,53.27
2022-10-06T01:33:35.664Z,53.37
2022-10-06T01:33:45.660Z,53.37
2022-10-06T01:33:55.671Z,53.37
2022-10-06T01:34:05.659Z,53.37
2022-10-06T01:34:15.662Z,53.37
2022-10-06T01:34:25.654Z,53.37
2022-10-06T01:34:35.658Z,53.37
2022-10-06T01:34:45.653Z,53.37
2022-10-06T01:34:55.657Z,53.37
2022-10-06T01:35:05.656Z,53.37
2022-10-06T01:35:15.654Z,53.37
2022-10-06T01:35:25.664Z,53.37
2022-10-06T01:35:35.650Z,53.37
2022-10-06T01:35:45.648Z,53.47
2022-10-06T01:35:55.649Z,53.47
2022-10-06T01:36:05.645Z,53.47
2022-10-06T01:36:15.649Z,53.47
2022-10-06T01:36:25.644Z,53.47
2022-10-06T01:36:35.644Z,53.47
2022-10-06T01:36:45.649Z,53.47
2022-10-06T01:36:55.642Z,53.47
2022-10-06T01:37:05.637Z,53.47
2022-10-06T01:37:15.639Z,53.47
2022-10-06T01:37:25.639Z,53.47
2022-10-06T01:37:35.636Z,53.47
2022-10-06T01:37:45.638Z,53.47
2022-10-06T01:37:55.635Z,53.57
2022-10-06T01:38:05.635Z,53.47
2022-10-06T01:38:15.637Z,53.57
2022-10-06T01:38:26.166Z,53.47
2022-10-06T01:38:35.635Z,53.57
2022-10-06T01:38:45.625Z,53.57
2022-10-06T01:38:55.629Z,53.57
2022-10-06T01:39:05.624Z,53.47
2022-10-06T01:39:15.624Z,53.57
2022-10-06T01:39:35.623Z,53.47
2022-10-06T01:39:45.621Z,53.47
2022-10-06T01:39:55.622Z,53.57
2022-10-06T01:40:05.615Z,53.47
2022-10-06T01:40:15.617Z,53.47
2022-10-06T01:40:25.617Z,53.47
2022-10-06T01:40:35.616Z,53.47
2022-10-06T01:40:45.610Z,53.47
2022-10-06T01:40:55.615Z,53.47
2022-10-06T01:41:05.720Z,53.47
2022-10-06T01:41:15.612Z,53.57
2022-10-06T01:41:25.620Z,53.57
2022-10-06T01:41:35.609Z,53.47
2022-10-06T01:41:45.602Z,53.57
2022-10-06T01:41:55.604Z,53.47
2022-10-06T01:42:05.604Z,53.57
2022-10-06T01:42:15.602Z,53.57
2022-10-06T01:42:25.603Z,53.57
2022-10-06T01:42:35.601Z,53.57
2022-10-06T01:42:45.600Z,53.57
2022-10-06T01:42:55.601Z,53.57
2022-10-06T01:43:05.593Z,53.57
2022-10-06T01:43:15.598Z,53.57
2022-10-06T01:43:25.597Z,53.57
2022-10-06T01:43:35.595Z,53.47
2022-10-06T01:43:45.597Z,53.57
2022-10-06T01:43:55.596Z,53.57
2022-10-06T01:44:05.585Z,53.57
2022-10-06T01:44:15.589Z,53.47
2022-10-06T01:44:25.587Z,53.57
2022-10-06T01:44:35.599Z,53.47
2022-10-06T01:44:45.585Z,53.57
2022-10-06T01:44:55.590Z,53.57
2022-10-06T01:45:05.580Z,53.57
2022-10-06T01:45:15.580Z,53.57
2022-10-06T01:45:25.597Z,53.57
2022-10-06T01:45:35.583Z,53.57
2022-10-06T01:45:45.576Z,53.47
2022-10-06T01:45:55.578Z,53.47
2022-10-06T01:46:05.650Z,53.47
2022-10-06T01:46:15.703Z,53.47
2022-10-06T01:46:25.631Z,53.57
2022-10-06T01:46:35.610Z,53.47
2022-10-06T01:46:45.633Z,53.47
2022-10-06T01:46:55.568Z,53.47
2022-10-06T01:47:05.572Z,53.47
2022-10-06T01:47:15.571Z,53.47
2022-10-06T01:47:25.567Z,53.47
2022-10-06T01:47:35.576Z,53.47
2022-10-06T01:47:45.560Z,53.47
2022-10-06T01:47:55.566Z,53.47
2022-10-06T01:48:05.559Z,53.47
2022-10-06T01:48:15.561Z,53.47
2022-10-06T01:48:26.190Z,53.47
2022-10-06T01:48:35.557Z,53.47
2022-10-06T01:48:45.555Z,53.47
2022-10-06T01:48:55.557Z,53.57
2022-10-06T01:49:05.552Z,53.57
2022-10-06T01:49:15.554Z,53.47
2022-10-06T01:49:35.566Z,53.47
2022-10-06T01:49:45.560Z,53.47
2022-10-06T01:49:55.548Z,53.47
2022-10-06T01:50:05.552Z,53.47
2022-10-06T01:50:15.545Z,53.47
2022-10-06T01:50:25.543Z,53.57
2022-10-06T01:50:35.546Z,53.57
2022-10-06T01:50:45.544Z,53.47
2022-10-06T01:50:55.542Z,53.47
2022-10-06T01:51:05.538Z,53.47
2022-10-06T01:51:15.541Z,53.47
2022-10-06T01:51:25.535Z,53.47
2022-10-06T01:51:35.539Z,53.47
2022-10-06T01:51:45.537Z,53.47
2022-10-06T01:51:55.535Z,53.47
2022-10-06T01:52:05.535Z,53.47
2022-10-06T01:52:15.535Z,53.47
2022-10-06T01:52:25.530Z,53.47
2022-10-06T01:52:35.530Z,53.47
2022-10-06T01:52:45.527Z,53.47
2022-10-06T01:52:55.526Z,53.37
2022-10-06T01:53:05.522Z,53.37
2022-10-06T01:53:15.527Z,53.47
2022-10-06T01:53:25.522Z,53.47
2022-10-06T01:53:35.524Z,53.47
2022-10-06T01:53:45.525Z,53.47
2022-10-06T01:53:55.522Z,53.37
2022-10-06T01:54:05.517Z,53.47
2022-10-06T01:54:15.518Z,53.47
2022-10-06T01:54:35.521Z,53.47
2022-10-06T01:54:45.523Z,53.47
2022-10-06T01:54:55.512Z,53.47
2022-10-06T01:55:05.510Z,53.47
2022-10-06T01:55:15.507Z,53.47
2022-10-06T01:55:25.509Z,53.47
2022-10-06T01:55:35.504Z,53.57
2022-10-06T01:55:45.510Z,53.57
2022-10-06T01:55:55.504Z,53.57
2022-10-06T01:56:05.504Z,53.57
2022-10-06T01:56:15.499Z,53.57
2022-10-06T01:56:25.518Z,53.57
2022-10-06T01:56:35.503Z,53.57
2022-10-06T01:56:45.507Z,53.57
2022-10-06T01:56:55.503Z,53.57
2022-10-06T01:57:05.497Z,53.57
2022-10-06T01:57:15.491Z,53.67
2022-10-06T01:57:25.498Z,53.57
2022-10-06T01:57:35.491Z,53.57
2022-10-06T01:57:45.494Z,53.67
2022-10-06T01:57:55.490Z,53.57
2022-10-06T01:58:05.490Z,53.57
2022-10-06T01:58:15.487Z,53.57
2022-10-06T01:58:25.829Z,53.57
2022-10-06T01:58:35.482Z,53.57
2022-10-06T01:58:45.485Z,53.67
2022-10-06T01:58:55.482Z,53.67
2022-10-06T01:59:05.487Z,53.67
2022-10-06T01:59:15.480Z,53.67
2022-10-06T01:59:25.481Z,53.67
2022-10-06T01:59:35.496Z,53.80
2022-10-06T01:59:45.476Z,53.77
2022-10-06T01:59:55.474Z,53.87
2022-10-06T02:00:05.476Z,53.77
2022-10-06T02:00:15.472Z,53.80
2022-10-06T02:00:25.473Z,53.80
2022-10-06T02:00:35.484Z,53.89
2022-10-06T02:00:45.473Z,53.89
2022-10-06T02:00:55.470Z,53.89
2022-10-06T02:01:05.469Z,53.89
2022-10-06T02:01:15.513Z,53.89
2022-10-06T02:01:25.515Z,54.00
2022-10-06T02:01:35.534Z,54.00
2022-10-06T02:01:45.513Z,53.89
2022-10-06T02:02:05.580Z,53.87
2022-10-06T02:02:15.454Z,53.87
2022-10-06T02:02:25.458Z,53.87
2022-10-06T02:02:35.453Z,53.89
2022-10-06T02:02:45.457Z,53.87
2022-10-06T02:02:55.453Z,53.77
2022-10-06T02:03:05.454Z,53.77
2022-10-06T02:03:15.451Z,53.77
2022-10-06T02:03:25.451Z,53.77
2022-10-06T02:03:35.447Z,53.77
2022-10-06T02:03:45.454Z,53.77
2022-10-06T02:03:55.448Z,53.77
2022-10-06T02:04:05.504Z,53.77
2022-10-06T02:04:15.520Z,53.77
2022-10-06T02:04:25.489Z,53.77
2022-10-06T02:04:35.440Z,53.77
2022-10-06T02:04:45.443Z,53.77
2022-10-06T02:04:55.439Z,53.67
2022-10-06T02:05:05.437Z,53.67
2022-10-06T02:05:15.440Z,53.67
2022-10-06T02:05:25.437Z,53.67
2022-10-06T02:05:35.435Z,53.67
2022-10-06T02:05:45.435Z,53.57
2022-10-06T02:05:55.493Z,53.57
2022-10-06T02:06:05.537Z,53.57
2022-10-06T02:06:15.521Z,53.57
2022-10-06T02:06:25.500Z,53.57
2022-10-06T02:06:35.455Z,53.67
2022-10-06T02:06:45.505Z,53.57
2022-10-06T02:06:55.430Z,53.67
2022-10-06T02:07:05.424Z,53.57
2022-10-06T02:07:15.427Z,53.57
2022-10-06T02:07:25.422Z,53.57
2022-10-06T02:07:35.424Z,53.57
2022-10-06T02:07:45.422Z,53.57
2022-10-06T02:07:55.426Z,53.57
2022-10-06T02:08:05.419Z,53.67
2022-10-06T02:08:15.413Z,53.67
2022-10-06T02:08:25.826Z,53.67
2022-10-06T02:08:35.416Z,53.67
2022-10-06T02:08:45.413Z,53.67
2022-10-06T02:08:55.410Z,53.67
2022-10-06T02:09:05.414Z,53.57
2022-10-06T02:09:15.408Z,53.57
2022-10-06T02:09:35.403Z,53.57
2022-10-06T02:09:45.405Z,53.57
2022-10-06T02:09:55.404Z,53.57
2022-10-06T02:10:05.404Z,53.57
2022-10-06T02:10:15.401Z,53.67
2022-10-06T02:10:25.402Z,53.67
2022-10-06T02:10:35.397Z,53.67
2022-10-06T02:10:45.399Z,53.67
2022-10-06T02:10:55.398Z,53.67
2022-10-06T02:11:05.395Z,53.67
2022-10-06T02:11:15.401Z,53.67
2022-10-06T02:11:25.410Z,53.67
2022-10-06T02:11:35.388Z,53.57
2022-10-06T02:11:45.393Z,53.57
2022-10-06T02:11:55.419Z,53.67
2022-10-06T02:12:05.389Z,53.67
2022-10-06T02:12:15.385Z,53.67
2022-10-06T02:12:25.412Z,53.67
2022-10-06T02:12:35.388Z,53.67